createdAt,value
2023-04-11T00:03:36.806Z,2.20
2023-04-11T00:08:38.351Z,2.23
2023-04-11T00:13:39.751Z,2.30
2023-04-11T00:18:41.149Z,1.70
2023-04-11T00:23:42.569Z,2.10
2023-04-11T00:28:43.973Z,2.30
2023-04-11T00:33:45.378Z,2.20
2023-04-11T00:38:46.777Z,1.67
2023-04-11T00:43:48.173Z,1.77
2023-04-11T00:48:49.592Z,1.60
2023-04-11T00:53:50.994Z,1.77
2023-04-11T00:58:52.514Z,2.00
2023-04-11T01:03:54.158Z,2.30
2023-04-11T01:08:55.975Z,2.07
2023-04-11T01:13:57.717Z,1.80
2023-04-11T01:18:59.134Z,1.73
2023-04-11T01:24:00.545Z,1.80
2023-04-11T01:29:01.933Z,2.20
2023-04-11T01:34:03.342Z,1.53
2023-04-11T01:39:04.770Z,1.80
2023-04-11T01:44:06.181Z,2.07
2023-04-11T01:49:07.670Z,1.87
2023-04-11T01:54:09.307Z,1.90
2023-04-11T01:59:10.709Z,1.77
2023-04-11T02:04:12.316Z,2.00
2023-04-11T02:09:13.887Z,1.80
2023-04-11T02:14:15.297Z,1.77
2023-04-11T02:19:16.723Z,1.70
2023-04-11T02:24:18.126Z,1.63
2023-04-11T02:29:19.557Z,2.03
2023-04-11T02:34:20.990Z,1.53
2023-04-11T02:39:22.506Z,1.60
2023-04-11T02:44:23.936Z,1.73
2023-04-11T02:49:25.400Z,1.77
2023-04-11T02:54:26.862Z,1.80
2023-04-11T02:59:28.524Z,1.37
2023-04-11T03:04:29.987Z,1.63
2023-04-11T03:09:31.455Z,1.83
2023-04-11T03:14:32.917Z,1.77
2023-04-11T03:19:34.381Z,1.83
2023-04-11T03:24:35.833Z,1.70
2023-04-11T03:29:37.262Z,1.70
2023-04-11T03:34:38.780Z,1.63
2023-04-11T03:39:40.223Z,1.77
2023-04-11T03:44:41.639Z,1.70
2023-04-11T03:49:43.068Z,1.70
2023-04-11T03:54:46.316Z,1.60
2023-04-11T03:59:49.055Z,1.50
2023-04-11T04:04:50.579Z,2.10
2023-04-11T04:09:52.121Z,2.00
2023-04-11T04:14:53.543Z,2.00
2023-04-11T04:19:54.962Z,2.20
2023-04-11T04:24:56.364Z,1.83
2023-04-11T04:30:03.961Z,1.57
2023-04-11T04:35:05.804Z,1.60
2023-04-11T04:40:07.229Z,1.50
2023-04-11T04:45:08.774Z,1.50
2023-04-11T04:50:10.347Z,1.60
2023-04-11T04:55:11.804Z,1.53
2023-04-11T05:00:13.256Z,1.60
2023-04-11T05:05:14.728Z,1.77
2023-04-11T05:10:16.141Z,1.47
2023-04-11T05:15:17.537Z,1.40
2023-04-11T05:20:18.950Z,1.77
2023-04-11T05:25:20.385Z,1.70
2023-04-11T05:30:21.807Z,1.83
2023-04-11T05:35:23.215Z,1.90
2023-04-11T05:40:24.683Z,2.00
2023-04-11T05:45:26.107Z,1.50
2023-04-11T05:50:27.503Z,1.80
2023-04-11T05:55:28.915Z,1.50
2023-04-11T06:00:30.350Z,1.90
2023-04-11T06:05:31.795Z,1.90
2023-04-11T06:10:33.225Z,1.80
2023-04-11T06:15:34.701Z,1.70
2023-04-11T06:20:36.127Z,1.87
2023-04-11T06:25:38.591Z,1.70
2023-04-11T06:30:39.996Z,1.77
2023-04-11T06:35:41.418Z,1.80
2023-04-11T06:40:42.862Z,1.60
2023-04-11T06:45:44.263Z,1.57
2023-04-11T06:50:45.688Z,1.63
2023-04-11T06:55:47.097Z,1.63
2023-04-11T07:00:48.503Z,1.80
2023-04-11T07:05:49.967Z,1.87
2023-04-11T07:10:51.360Z,1.60
2023-04-11T07:15:52.786Z,1.30
2023-04-11T07:20:54.240Z,1.47
2023-04-11T07:25:55.656Z,1.80
2023-04-11T07:30:57.109Z,1.87
2023-04-11T07:35:58.532Z,1.93
2023-04-11T07:41:00.022Z,2.10
2023-04-11T07:46:01.451Z,1.40
2023-04-11T07:51:02.877Z,2.10
2023-04-11T07:56:04.334Z,1.67
2023-04-11T08:01:05.758Z,1.77
2023-04-11T08:06:07.185Z,1.90
2023-04-11T08:11:08.607Z,1.60
2023-04-11T08:16:10.068Z,1.77
2023-04-11T08:21:11.566Z,1.80
2023-04-11T08:26:13.029Z,2.00
2023-04-11T08:31:14.536Z,1.97
2023-04-11T08:36:16.031Z,1.50
2023-04-11T08:41:17.497Z,1.50
2023-04-11T08:46:18.921Z,1.40
2023-04-11T08:51:20.332Z,1.93
2023-04-11T08:56:21.738Z,1.83
2023-04-11T09:01:23.202Z,1.50
2023-04-11T09:06:24.630Z,1.43
2023-04-11T09:11:26.046Z,1.60
2023-04-11T09:16:27.475Z,1.90
2023-04-11T09:21:29.272Z,1.60
2023-04-11T09:26:30.732Z,2.10
2023-04-11T09:31:32.153Z,1.70
2023-04-11T09:36:33.611Z,1.73
2023-04-11T09:41:35.028Z,1.43
2023-04-11T09:46:36.540Z,1.87
2023-04-11T09:51:37.996Z,1.50
2023-04-11T09:56:39.404Z,1.60
2023-04-11T10:01:40.857Z,1.40
2023-04-11T10:06:42.343Z,1.50
2023-04-11T10:11:43.762Z,1.70
2023-04-11T10:16:45.196Z,1.80
2023-04-11T10:21:46.620Z,1.90
2023-04-11T10:26:48.057Z,1.60
2023-04-11T10:31:49.493Z,1.30
2023-04-11T10:36:50.937Z,1.90
2023-04-11T10:41:52.333Z,1.30
2023-04-11T10:46:54.007Z,1.40
2023-04-11T10:51:58.041Z,1.50
2023-04-11T10:56:59.501Z,1.50
2023-04-11T11:02:00.980Z,1.60
2023-04-11T11:07:02.441Z,1.50
2023-04-11T11:12:03.966Z,1.67
2023-04-11T11:17:05.490Z,1.70
2023-04-11T11:22:06.963Z,1.80
2023-04-11T11:27:08.388Z,1.60
2023-04-11T11:32:09.836Z,1.63
2023-04-11T11:37:11.276Z,2.03
2023-04-11T11:42:12.679Z,2.10
2023-04-11T11:47:14.082Z,2.17
2023-04-11T11:52:15.513Z,2.60
2023-04-11T11:57:16.941Z,2.50
2023-04-11T12:02:18.430Z,2.33
2023-04-11T12:07:19.858Z,2.53
2023-04-11T12:12:21.293Z,2.23
2023-04-11T12:17:22.788Z,3.50
2023-04-11T12:22:24.225Z,2.97
2023-04-11T12:27:25.633Z,2.20
2023-04-11T12:32:27.063Z,2.43
2023-04-11T12:37:28.489Z,1.97
2023-04-11T12:42:29.902Z,2.20
2023-04-11T12:47:31.378Z,2.20
2023-04-11T12:52:32.842Z,1.97
2023-04-11T12:57:34.320Z,1.80
2023-04-11T13:02:42.820Z,1.57
2023-04-11T13:07:46.131Z,1.80
2023-04-11T13:12:47.835Z,2.37
2023-04-11T13:17:49.369Z,1.93
2023-04-11T13:22:50.826Z,1.97
2023-04-11T13:27:52.229Z,1.73
2023-04-11T13:32:53.689Z,1.73
2023-04-11T13:37:55.128Z,2.23
2023-04-11T13:42:56.532Z,2.37
2023-04-11T13:47:58.033Z,1.23
2023-04-11T13:52:59.489Z,1.40
2023-04-11T13:58:00.879Z,1.50
2023-04-11T14:03:02.518Z,1.30
2023-04-11T14:08:04.009Z,1.50
2023-04-11T14:13:05.432Z,2.17
2023-04-11T14:18:06.904Z,1.77
2023-04-11T14:23:08.314Z,1.63
2023-04-11T14:28:09.715Z,1.53
2023-04-11T14:33:11.141Z,1.70
2023-04-11T14:38:12.570Z,1.50
2023-04-11T14:43:13.962Z,2.23
2023-04-11T14:48:15.372Z,1.87
2023-04-11T14:53:16.809Z,2.10
2023-04-11T14:58:18.230Z,1.57
2023-04-11T15:03:19.747Z,1.80
2023-04-11T15:08:21.248Z,1.43
2023-04-11T15:13:22.863Z,1.50
2023-04-11T15:18:24.354Z,1.80
2023-04-11T15:23:25.772Z,2.40
2023-04-11T15:28:27.180Z,2.63
2023-04-11T15:33:28.578Z,2.37
2023-04-11T15:38:29.971Z,2.40
2023-04-11T15:43:31.391Z,1.70
2023-04-11T15:48:32.821Z,2.60
2023-04-11T15:53:34.206Z,2.63
2023-04-11T15:58:35.608Z,2.70
2023-04-11T16:03:37.124Z,2.20
2023-04-11T16:08:38.660Z,2.17
2023-04-11T16:13:40.181Z,2.60
2023-04-11T16:18:41.599Z,2.77
2023-04-11T16:23:43.014Z,2.50
2023-04-11T16:28:47.316Z,2.20
2023-04-11T16:33:48.731Z,2.37
2023-04-11T16:38:50.131Z,2.60
2023-04-11T16:43:51.569Z,2.57
2023-04-11T16:48:52.967Z,1.73
2023-04-11T16:53:54.569Z,2.30
2023-04-11T16:58:56.146Z,2.13
2023-04-11T17:03:57.775Z,2.33
2023-04-11T17:08:59.494Z,2.67
2023-04-11T17:14:00.903Z,3.07
2023-04-11T17:19:02.306Z,3.50
2023-04-11T17:24:03.718Z,3.50
2023-04-11T17:29:05.128Z,2.83
2023-04-11T17:34:06.555Z,2.93
2023-04-11T17:39:07.953Z,2.67
2023-04-11T17:44:09.372Z,2.37
2023-04-11T17:49:10.786Z,2.33
2023-04-11T17:54:12.170Z,2.03
2023-04-11T17:59:13.579Z,2.70
2023-04-11T18:04:15.049Z,2.03
2023-04-11T18:09:16.574Z,1.80
2023-04-11T18:14:17.961Z,1.90
2023-04-11T18:19:19.370Z,2.30
2023-04-11T18:24:20.932Z,2.10
2023-04-11T18:29:22.345Z,2.40
2023-04-11T18:34:23.818Z,2.40
2023-04-11T18:39:25.704Z,2.13
2023-04-11T18:44:27.156Z,2.30
2023-04-11T18:49:30.130Z,2.60
2023-04-11T18:54:32.593Z,2.27
2023-04-11T18:59:38.923Z,1.87
2023-04-11T19:04:43.204Z,3.20
2023-04-11T19:09:45.231Z,2.33
2023-04-11T19:14:46.631Z,2.77
2023-04-11T19:19:48.068Z,2.83
2023-04-11T19:24:49.528Z,2.50
2023-04-11T19:29:50.983Z,2.70
2023-04-11T19:34:52.384Z,2.40
2023-04-11T19:39:53.778Z,2.40
2023-04-11T19:44:55.184Z,2.30
2023-04-11T19:49:56.577Z,2.53
2023-04-11T19:54:57.990Z,1.77
2023-04-11T19:59:59.416Z,2.10
2023-04-11T20:05:00.814Z,2.47
2023-04-11T20:10:02.231Z,2.10
2023-04-11T20:15:03.617Z,1.90
2023-04-11T20:20:05.017Z,2.30
2023-04-11T20:25:06.437Z,1.80
2023-04-11T20:30:07.883Z,1.90
2023-04-11T20:35:09.292Z,1.67
2023-04-11T20:40:10.819Z,1.90
2023-04-11T20:45:20.009Z,2.03
2023-04-11T20:50:21.445Z,1.90
2023-04-11T20:55:22.859Z,1.67
2023-04-11T21:00:24.264Z,1.50
2023-04-11T21:05:25.674Z,1.63
2023-04-11T21:10:27.092Z,2.30
2023-04-11T21:15:28.519Z,1.50
2023-04-11T21:20:29.938Z,1.70
2023-04-11T21:25:31.349Z,2.00
2023-04-11T21:30:32.753Z,1.40
2023-04-11T21:35:34.216Z,1.67
2023-04-11T21:40:35.617Z,1.50
2023-04-11T21:45:37.003Z,1.43
2023-04-11T21:50:38.398Z,1.30
2023-04-11T21:55:39.777Z,1.47
2023-04-11T22:00:41.190Z,1.73
2023-04-11T22:05:42.711Z,1.70
2023-04-11T22:10:47.669Z,2.00
2023-04-11T22:15:49.641Z,1.57
2023-04-11T22:20:51.042Z,1.43
2023-04-11T22:25:52.437Z,1.40
2023-04-11T22:30:53.827Z,1.63
2023-04-11T22:35:55.239Z,1.47
2023-04-11T22:40:56.679Z,1.33
2023-04-11T22:45:58.112Z,1.60
2023-04-11T22:50:59.538Z,1.30
2023-04-11T22:56:00.942Z,1.53
2023-04-11T23:01:02.348Z,1.63
2023-04-11T23:06:03.750Z,1.30
2023-04-11T23:11:05.133Z,1.30
2023-04-11T23:16:06.523Z,1.33
2023-04-11T23:21:07.917Z,1.57
2023-04-11T23:26:09.307Z,1.40
2023-04-11T23:31:10.752Z,1.37
2023-04-11T23:36:12.214Z,1.73
2023-04-11T23:41:13.635Z,1.30
2023-04-11T23:46:15.124Z,1.30
2023-04-11T23:51:16.617Z,1.50
2023-04-11T23:56:18.023Z,1.40
